Time;durP1;ratioP1;P1;durP2;ratioP2;P2;SDS_P1;SDS_P2;PMS_P1;PMS_P2;Temp;Humidity;BMP_temperature;BMP_pressure;BME280_temperature;BME280_humidity;BME280_pressure;Samples;Min_cycle;Max_cycle;Signal;HPM_P1;HPM_P2
2020/12/05 00:01:59;0.00;0.00;0.62;0.00;0.00;0.62;4.30;1.67;;;20.60;27.80;;;;;;2249468;61;20357;-62
2020/12/05 00:04:44;0.00;0.00;0.62;0.00;0.00;0.62;1.77;1.67;;;20.60;27.80;;;;;;2249408;61;20437;-61
2020/12/05 00:07:29;0.00;0.00;0.62;0.00;0.00;0.62;2.77;2.43;;;20.60;28.30;;;;;;2249132;61;20745;-62
2020/12/05 00:10:15;0.00;0.00;0.62;0.00;0.00;0.62;3.30;2.33;;;20.50;27.60;;;;;;2249142;61;20396;-62
2020/12/05 00:12:59;0.00;0.00;0.62;0.00;0.00;0.62;5.33;2.70;;;20.60;27.60;;;;;;2249736;61;20373;-62
2020/12/05 00:15:44;0.00;0.00;0.62;0.00;0.00;0.62;3.00;2.40;;;20.50;27.50;;;;;;2246335;61;20439;-62
2020/12/05 00:18:29;0.00;0.00;0.62;0.00;0.00;0.62;3.30;2.63;;;20.50;27.50;;;;;;2249874;61;20376;-62
2020/12/05 00:21:16;0.00;0.00;0.62;0.00;0.00;0.62;2.30;2.10;;;20.50;27.50;;;;;;2249794;61;20405;-61
2020/12/05 00:24:01;0.00;0.00;0.62;0.00;0.00;0.62;2.50;2.30;;;20.50;27.50;;;;;;2246417;61;20685;-61
2020/12/05 00:26:49;0.00;0.00;0.62;0.00;0.00;0.62;2.30;2.10;;;20.60;27.60;;;;;;2249919;61;20612;-61
2020/12/05 00:29:33;0.00;0.00;0.62;0.00;0.00;0.62;3.50;2.13;;;20.50;27.50;;;;;;2249560;61;20365;-62
2020/12/05 00:32:18;0.00;0.00;0.62;0.00;0.00;0.62;2.33;2.10;;;20.50;27.50;;;;;;2249685;61;20695;-61
2020/12/05 00:35:03;0.00;0.00;0.62;0.00;0.00;0.62;2.77;2.10;;;20.50;27.50;;;;;;2249678;61;20584;-62
2020/12/05 00:37:48;0.00;0.00;0.62;0.00;0.00;0.62;3.20;1.87;;;20.50;27.50;;;;;;2249411;61;20462;-62
2020/12/05 00:40:32;0.00;0.00;0.62;0.00;0.00;0.62;2.37;1.90;;;20.50;27.50;;;;;;2249784;61;20663;-61
2020/12/05 00:43:18;0.00;0.00;0.62;0.00;0.00;0.62;2.70;1.83;;;20.50;27.50;;;;;;2249584;61;20413;-61
2020/12/05 00:46:04;0.00;0.00;0.62;0.00;0.00;0.62;2.17;1.90;;;20.50;27.50;;;;;;2249625;61;20387;-61
2020/12/05 00:48:49;0.00;0.00;0.62;0.00;0.00;0.62;2.97;2.30;;;20.50;27.50;;;;;;2246598;61;20361;-61
2020/12/05 00:51:33;0.00;0.00;0.62;0.00;0.00;0.62;1.90;1.60;;;20.50;27.50;;;;;;2249517;61;20701;-62
2020/12/05 00:54:18;0.00;0.00;0.62;0.00;0.00;0.62;3.20;2.30;;;20.50;27.50;;;;;;2246365;61;20400;-62
2020/12/05 00:57:05;0.00;0.00;0.62;0.00;0.00;0.62;2.57;2.00;;;20.50;27.50;;;;;;2249929;61;20400;-62
2020/12/05 00:59:50;0.00;0.00;0.62;0.00;0.00;0.62;3.00;2.23;;;20.50;27.50;;;;;;2249995;61;20385;-62
2020/12/05 01:02:35;0.00;0.00;0.62;0.00;0.00;0.62;3.20;1.97;;;20.50;27.50;;;;;;2250403;61;20365;-61
2020/12/05 01:05:19;0.00;0.00;0.62;0.00;0.00;0.62;2.60;1.87;;;20.50;27.50;;;;;;2250380;61;20377;-62
2020/12/05 01:08:06;0.00;0.00;0.62;0.00;0.00;0.62;1.77;1.67;;;20.50;27.50;;;;;;2249930;61;20384;-61
2020/12/05 01:10:51;0.00;0.00;0.62;0.00;0.00;0.62;1.97;1.80;;;20.50;27.50;;;;;;2250265;61;20397;-62
2020/12/05 01:13:36;0.00;0.00;0.62;0.00;0.00;0.62;2.83;1.80;;;20.50;27.50;;;;;;2250061;61;20377;-61
2020/12/05 01:16:22;0.00;0.00;0.62;0.00;0.00;0.62;2.63;1.90;;;20.50;27.50;;;;;;2250223;61;20432;-61
2020/12/05 01:19:07;0.00;0.00;0.62;0.00;0.00;0.62;3.07;1.97;;;20.50;27.50;;;;;;2250173;61;20468;-62
2020/12/05 01:21:51;0.00;0.00;0.62;0.00;0.00;0.62;1.70;1.60;;;20.50;27.50;;;;;;2250175;61;20365;-62
2020/12/05 01:24:36;0.00;0.00;0.62;0.00;0.00;0.62;2.87;2.30;;;20.50;27.50;;;;;;2249860;61;20365;-61
2020/12/05 01:27:20;0.00;0.00;0.62;0.00;0.00;0.62;2.00;1.70;;;20.50;27.50;;;;;;2250304;61;20385;-62
2020/12/05 01:30:05;0.00;0.00;0.62;0.00;0.00;0.62;2.00;1.80;;;20.50;27.60;;;;;;2249919;61;20354;-61
2020/12/05 01:32:51;0.00;0.00;0.62;0.00;0.00;0.62;2.00;1.73;;;20.50;27.60;;;;;;2250183;61;20383;-62
2020/12/05 01:35:35;0.00;0.00;0.62;0.00;0.00;0.62;2.10;1.90;;;20.50;27.60;;;;;;2250097;61;20490;-62
2020/12/05 01:38:20;0.00;0.00;0.62;0.00;0.00;0.62;2.23;2.03;;;20.50;27.60;;;;;;2250165;61;20401;-61
2020/12/05 01:41:06;0.00;0.00;0.62;0.00;0.00;0.62;1.80;1.70;;;20.50;27.60;;;;;;2250271;61;20384;-62
2020/12/05 01:43:51;0.00;0.00;0.62;0.00;0.00;0.62;2.37;2.17;;;20.50;27.60;;;;;;2249963;61;20389;-62
2020/12/05 01:46:38;0.00;0.00;0.62;0.00;0.00;0.62;2.47;2.07;;;20.50;27.60;;;;;;2250286;61;20432;-62
2020/12/05 01:49:25;0.00;0.00;0.62;0.00;0.00;0.62;1.70;1.60;;;20.50;27.60;;;;;;2250200;61;20416;-61
2020/12/05 01:52:10;0.00;0.00;0.62;0.00;0.00;0.62;2.20;2.00;;;20.50;27.60;;;;;;2249946;61;20380;-61
2020/12/05 01:54:55;0.00;0.00;0.62;0.00;0.00;0.62;2.03;1.77;;;20.50;27.60;;;;;;2250017;61;20361;-62
2020/12/05 01:57:39;0.00;0.00;0.62;0.00;0.00;0.62;2.73;1.80;;;20.50;27.60;;;;;;2249597;61;20772;-62
2020/12/05 02:00:24;0.00;0.00;0.62;0.00;0.00;0.62;2.23;1.70;;;20.50;27.60;;;;;;2249590;61;20385;-62
2020/12/05 02:03:09;0.00;0.00;0.62;0.00;0.00;0.62;2.10;1.70;;;20.50;27.60;;;;;;2246403;61;20457;-62
2020/12/05 02:06:05;0.00;0.00;0.62;0.00;0.00;0.62;2.80;1.60;;;20.50;27.60;;;;;;2249370;61;20590;-62
2020/12/05 02:08:59;0.00;0.00;0.62;0.00;0.00;0.62;2.30;1.80;;;20.50;27.70;;;;;;2246234;61;20365;-62
2020/12/05 02:11:52;0.00;0.00;0.62;0.00;0.00;0.62;2.10;1.90;;;20.50;27.70;;;;;;2249597;61;20628;-61
2020/12/05 02:14:39;0.00;0.00;0.62;0.00;0.00;0.62;2.10;1.77;;;20.50;27.60;;;;;;2249302;61;20401;-62
2020/12/05 02:17:25;0.00;0.00;0.62;0.00;0.00;0.62;2.57;1.73;;;20.50;27.70;;;;;;2249544;61;20796;-62
2020/12/05 02:20:12;0.00;0.00;0.62;0.00;0.00;0.62;1.90;1.80;;;20.50;27.70;;;;;;2249438;61;20505;-61
2020/12/05 02:23:06;0.00;0.00;0.62;0.00;0.00;0.62;2.07;1.60;;;20.50;27.70;;;;;;2249414;61;20749;-62
2020/12/05 02:25:58;0.00;0.00;0.62;0.00;0.00;0.62;3.33;1.60;;;20.50;27.70;;;;;;2246413;61;20400;-62
2020/12/05 02:28:43;0.00;0.00;0.62;0.00;0.00;0.62;3.47;3.17;;;20.50;27.70;;;;;;2249276;61;20434;-62
2020/12/05 02:31:28;0.00;0.00;0.62;0.00;0.00;0.62;2.80;2.30;;;20.50;27.60;;;;;;2246399;61;20389;-63
2020/12/05 02:34:13;0.00;0.00;0.62;0.00;0.00;0.62;5.57;3.10;;;20.50;27.60;;;;;;2249403;61;20376;-63
2020/12/05 02:37:04;0.00;0.00;0.62;0.00;0.00;0.62;4.07;3.60;;;20.50;27.60;;;;;;2249288;61;20493;-61
2020/12/05 02:39:51;0.00;0.00;0.62;0.00;0.00;0.62;5.13;3.90;;;20.40;27.40;;;;;;2249557;61;20422;-62
2020/12/05 02:42:36;0.00;0.00;0.62;0.00;0.00;0.62;5.83;4.67;;;20.40;27.30;;;;;;2249159;61;20366;-61
2020/12/05 02:45:21;0.00;0.00;0.62;0.00;0.00;0.62;6.20;4.80;;;20.40;27.20;;;;;;2249476;61;20819;-63
2020/12/05 02:48:05;0.00;0.00;0.62;0.00;0.00;0.62;5.67;4.67;;;20.40;27.00;;;;;;2249510;61;20432;-62
2020/12/05 02:50:50;0.00;0.00;0.62;0.00;0.00;0.62;6.10;5.23;;;20.40;27.00;;;;;;2249196;61;20353;-62
2020/12/05 02:53:34;0.00;0.00;0.62;0.00;0.00;0.62;5.87;5.27;;;20.40;27.00;;;;;;2249418;61;20798;-61
2020/12/05 02:56:21;0.00;0.00;0.62;0.00;0.00;0.62;5.33;4.83;;;20.30;26.80;;;;;;2249672;61;20381;-62
2020/12/05 02:59:06;0.00;0.00;0.62;0.00;0.00;0.62;6.27;5.67;;;20.30;26.80;;;;;;2249293;61;20797;-62
2020/12/05 03:01:50;0.00;0.00;0.62;0.00;0.00;0.62;6.60;5.47;;;20.30;26.80;;;;;;2249384;61;20365;-62
2020/12/05 03:04:35;0.00;0.00;0.62;0.00;0.00;0.62;6.43;5.73;;;20.30;26.80;;;;;;2249092;61;20380;-62
2020/12/05 03:07:19;0.00;0.00;0.62;0.00;0.00;0.62;6.43;5.70;;;20.30;26.80;;;;;;2249406;61;20397;-62
2020/12/05 03:10:04;0.00;0.00;0.62;0.00;0.00;0.62;7.47;6.77;;;20.20;26.70;;;;;;2249401;61;20669;-61
2020/12/05 03:12:49;0.00;0.00;0.62;0.00;0.00;0.62;7.40;5.80;;;20.20;26.70;;;;;;2249092;61;20357;-60
2020/12/05 03:15:34;0.00;0.00;0.62;0.00;0.00;0.62;7.07;6.43;;;20.20;26.70;;;;;;2249431;61;20429;-62
2020/12/05 03:18:19;0.00;0.00;0.62;0.00;0.00;0.62;8.67;6.90;;;20.20;27.30;;;;;;2249371;61;20373;-62
2020/12/05 03:21:03;0.00;0.00;0.62;0.00;0.00;0.62;8.23;7.43;;;20.10;26.70;;;;;;2249080;61;20408;-62
2020/12/05 03:23:48;0.00;0.00;0.62;0.00;0.00;0.62;8.17;6.33;;;20.10;26.70;;;;;;2249500;61;20365;-61
2020/12/05 03:26:32;0.00;0.00;0.62;0.00;0.00;0.62;8.53;7.53;;;20.10;26.70;;;;;;2249160;61;20428;-61
2020/12/05 03:29:18;0.00;0.00;0.62;0.00;0.00;0.62;8.30;7.43;;;20.10;26.70;;;;;;2249529;61;20357;-62
2020/12/05 03:32:09;0.00;0.00;0.62;0.00;0.00;0.62;9.43;7.60;;;20.00;26.60;;;;;;2249345;61;20369;-62
2020/12/05 03:34:54;0.00;0.00;0.62;0.00;0.00;0.62;11.03;9.93;;;20.00;26.60;;;;;;2249076;61;20353;-61
2020/12/05 03:37:39;0.00;0.00;0.62;0.00;0.00;0.62;7.90;7.20;;;20.00;26.60;;;;;;2249313;61;20640;-62
2020/12/05 03:40:24;0.00;0.00;0.62;0.00;0.00;0.62;9.33;8.33;;;20.00;26.60;;;;;;2249402;61;20592;-62
2020/12/05 03:43:08;0.00;0.00;0.62;0.00;0.00;0.62;8.50;6.87;;;19.90;26.50;;;;;;2248921;61;20368;-62
2020/12/05 03:45:54;0.00;0.00;0.62;0.00;0.00;0.62;9.70;8.03;;;19.90;26.50;;;;;;2246270;61;20465;-62
2020/12/05 03:48:38;0.00;0.00;0.62;0.00;0.00;0.62;11.60;7.90;;;19.90;26.50;;;;;;2249162;61;20368;-62
2020/12/05 03:51:23;0.00;0.00;0.62;0.00;0.00;0.62;11.20;8.60;;;19.90;26.50;;;;;;2249338;61;20725;-62
2020/12/05 03:54:07;0.00;0.00;0.62;0.00;0.00;0.62;9.13;8.23;;;19.80;26.50;;;;;;2249318;61;20369;-62
2020/12/05 03:56:52;0.00;0.00;0.62;0.00;0.00;0.62;10.53;8.87;;;19.80;26.50;;;;;;2249181;61;20680;-62
2020/12/05 03:59:37;0.00;0.00;0.62;0.00;0.00;0.62;10.30;8.30;;;19.80;26.50;;;;;;2249299;61;20863;-62
2020/12/05 04:02:23;0.00;0.00;0.62;0.00;0.00;0.62;9.47;8.27;;;19.70;26.40;;;;;;2249373;61;20419;-62
2020/12/05 04:05:07;0.00;0.00;0.62;0.00;0.00;0.62;8.17;7.37;;;19.70;26.40;;;;;;2248990;61;20377;-62
2020/12/05 04:07:52;0.00;0.00;0.62;0.00;0.00;0.62;9.70;8.70;;;19.70;26.40;;;;;;2249443;61;20647;-62
2020/12/05 04:10:36;0.00;0.00;0.62;0.00;0.00;0.62;9.90;9.00;;;19.70;26.40;;;;;;2249705;61;20361;-61
2020/12/05 04:13:21;0.00;0.00;0.62;0.00;0.00;0.62;9.20;8.30;;;19.70;26.40;;;;;;2249524;61;20380;-62
2020/12/05 04:16:05;0.00;0.00;0.62;0.00;0.00;0.62;9.17;8.27;;;19.60;26.30;;;;;;2249533;61;20630;-60
2020/12/05 04:18:51;0.00;0.00;0.62;0.00;0.00;0.62;9.90;9.00;;;19.60;26.30;;;;;;2249395;61;20400;-61
2020/12/05 04:21:35;0.00;0.00;0.62;0.00;0.00;0.62;8.70;7.80;;;19.60;26.30;;;;;;2246359;61;20357;-62
2020/12/05 04:24:20;0.00;0.00;0.62;0.00;0.00;0.62;8.87;7.97;;;19.60;26.30;;;;;;2249497;61;20356;-61
2020/12/05 04:27:05;0.00;0.00;0.62;0.00;0.00;0.62;8.90;8.00;;;19.60;26.30;;;;;;2249334;61;20429;-62
2020/12/05 04:29:50;0.00;0.00;0.62;0.00;0.00;0.62;9.00;8.10;;;19.50;26.30;;;;;;2249502;61;20733;-62
2020/12/05 04:32:35;0.00;0.00;0.62;0.00;0.00;0.62;10.20;9.10;;;19.50;26.30;;;;;;2250070;61;20383;-61
2020/12/05 04:35:21;0.00;0.00;0.62;0.00;0.00;0.62;10.37;9.37;;;19.50;26.30;;;;;;2250058;61;20419;-61
2020/12/05 04:38:05;0.00;0.00;0.62;0.00;0.00;0.62;9.13;8.10;;;19.50;26.30;;;;;;2250200;61;20845;-61
2020/12/05 04:40:54;0.00;0.00;0.62;0.00;0.00;0.62;12.40;9.23;;;19.40;26.20;;;;;;2249958;61;20420;-61
2020/12/05 04:43:41;0.00;0.00;0.62;0.00;0.00;0.62;8.50;7.70;;;19.40;26.20;;;;;;2250134;61;20369;-61
2020/12/05 04:46:27;0.00;0.00;0.62;0.00;0.00;0.62;9.50;8.60;;;19.40;26.20;;;;;;2250245;61;20473;-61
2020/12/05 04:49:11;0.00;0.00;0.62;0.00;0.00;0.62;11.10;8.77;;;19.40;26.20;;;;;;2249953;61;20384;-62
2020/12/05 04:52:20;0.00;0.00;0.62;0.00;0.00;0.62;9.40;8.37;;;19.40;26.20;;;;;;2250184;61;20361;-62
2020/12/05 04:55:04;0.00;0.00;0.62;0.00;0.00;0.62;10.40;8.43;;;19.30;26.10;;;;;;2247011;61;20369;-60
2020/12/05 04:57:56;0.00;0.00;0.62;0.00;0.00;0.62;10.23;9.00;;;19.30;26.10;;;;;;2250104;61;20411;-61
2020/12/05 05:00:41;0.00;0.00;0.62;0.00;0.00;0.62;8.13;7.40;;;19.30;26.10;;;;;;2250247;61;20385;-62
2020/12/05 05:03:27;0.00;0.00;0.62;0.00;0.00;0.62;10.03;9.03;;;19.30;26.10;;;;;;2249850;61;20392;-60
2020/12/05 05:06:19;0.00;0.00;0.62;0.00;0.00;0.62;9.33;8.37;;;19.30;26.10;;;;;;2250071;61;20480;-61
2020/12/05 05:09:05;0.00;0.00;0.62;0.00;0.00;0.62;9.57;8.57;;;19.20;26.00;;;;;;2250232;61;20405;-61
2020/12/05 05:11:55;0.00;0.00;0.62;0.00;0.00;0.62;9.37;8.40;;;19.20;26.00;;;;;;2249814;61;20369;-61
2020/12/05 05:14:40;0.00;0.00;0.62;0.00;0.00;0.62;9.03;7.67;;;19.20;26.00;;;;;;2249997;61;20434;-62
2020/12/05 05:17:25;0.00;0.00;0.62;0.00;0.00;0.62;10.57;9.20;;;19.20;26.00;;;;;;2249957;61;20600;-61
2020/12/05 05:20:19;0.00;0.00;0.62;0.00;0.00;0.62;10.83;9.20;;;19.20;26.00;;;;;;2250156;61;20397;-62
2020/12/05 05:23:15;0.00;0.00;0.62;0.00;0.00;0.62;11.70;9.00;;;19.20;26.00;;;;;;2249970;61;20769;-61
2020/12/05 05:26:04;0.00;0.00;0.62;0.00;0.00;0.62;9.30;8.30;;;19.20;26.00;;;;;;2249765;61;20568;-62
2020/12/05 05:28:48;0.00;0.00;0.62;0.00;0.00;0.62;9.73;8.63;;;19.10;26.00;;;;;;2250175;61;20368;-61
2020/12/05 05:31:47;0.00;0.00;0.62;0.00;0.00;0.62;9.70;8.70;;;19.10;26.00;;;;;;2249975;61;20397;-61
2020/12/05 05:34:32;0.00;0.00;0.62;0.00;0.00;0.62;10.20;9.20;;;19.10;26.00;;;;;;2249871;61;20401;-61
2020/12/05 05:37:19;0.00;0.00;0.62;0.00;0.00;0.62;13.30;9.10;;;19.10;26.00;;;;;;2250002;61;20599;-62
2020/12/05 05:40:06;0.00;0.00;0.62;0.00;0.00;0.62;9.63;8.70;;;19.10;26.00;;;;;;2249759;61;20432;-62
2020/12/05 05:42:51;0.00;0.00;0.62;0.00;0.00;0.62;9.37;8.20;;;19.10;26.00;;;;;;2249582;61;20356;-61
2020/12/05 05:45:38;0.00;0.00;0.62;0.00;0.00;0.62;9.30;8.30;;;19.00;25.90;;;;;;2249943;61;20469;-62
2020/12/05 05:48:24;0.00;0.00;0.62;0.00;0.00;0.62;10.73;9.63;;;19.00;25.90;;;;;;2249732;61;20362;-61
2020/12/05 05:51:09;0.00;0.00;0.62;0.00;0.00;0.62;9.57;8.20;;;19.00;25.90;;;;;;2250013;61;20353;-62
2020/12/05 05:54:16;0.00;0.00;0.62;0.00;0.00;0.62;8.33;7.60;;;19.00;25.90;;;;;;2249998;61;20356;-61
2020/12/05 05:57:05;0.00;0.00;0.62;0.00;0.00;0.62;9.60;8.60;;;19.00;25.90;;;;;;2249948;61;20377;-62
2020/12/05 05:59:51;0.00;0.00;0.62;0.00;0.00;0.62;9.93;9.00;;;19.00;25.90;;;;;;2249973;61;20417;-61
2020/12/05 06:02:39;0.00;0.00;0.62;0.00;0.00;0.62;10.73;9.20;;;19.00;25.90;;;;;;2249633;61;20381;-62
2020/12/05 06:05:29;0.00;0.00;0.62;0.00;0.00;0.62;9.67;8.63;;;18.90;25.80;;;;;;2250089;61;20385;-62
2020/12/05 06:08:18;0.00;0.00;0.62;0.00;0.00;0.62;10.13;9.00;;;18.90;25.80;;;;;;2249962;61;20401;-62
2020/12/05 06:11:10;0.00;0.00;0.62;0.00;0.00;0.62;9.03;8.10;;;18.90;25.80;;;;;;2249585;61;20353;-62
2020/12/05 06:13:55;0.00;0.00;0.62;0.00;0.00;0.62;9.60;8.33;;;18.90;25.80;;;;;;2249897;61;20401;-60
2020/12/05 06:16:41;0.00;0.00;0.62;0.00;0.00;0.62;10.60;8.70;;;18.90;25.80;;;;;;2249700;61;20857;-61
2020/12/05 06:19:26;0.00;0.00;0.62;0.00;0.00;0.62;10.50;9.40;;;18.90;25.80;;;;;;2249896;61;20392;-61
2020/12/05 06:22:21;0.00;0.00;0.62;0.00;0.00;0.62;9.73;8.73;;;18.90;25.80;;;;;;2249939;61;20773;-62
2020/12/05 06:25:10;0.00;0.00;0.62;0.00;0.00;0.62;10.13;8.77;;;18.80;25.80;;;;;;2249544;61;20357;-62
2020/12/05 06:28:03;0.00;0.00;0.62;0.00;0.00;0.62;8.40;7.60;;;18.80;25.80;;;;;;2249955;61;20377;-62
2020/12/05 06:30:49;0.00;0.00;0.62;0.00;0.00;0.62;9.40;8.50;;;18.80;25.80;;;;;;2249735;61;20352;-61
2020/12/05 06:33:42;0.00;0.00;0.62;0.00;0.00;0.62;10.50;9.33;;;18.80;25.80;;;;;;2249502;61;20778;-62
2020/12/05 06:36:38;0.00;0.00;0.62;0.00;0.00;0.62;11.33;9.67;;;18.80;25.80;;;;;;2249982;61;20770;-61
2020/12/05 06:39:23;0.00;0.00;0.62;0.00;0.00;0.62;10.23;9.03;;;18.80;25.80;;;;;;2249613;61;20433;-61
2020/12/05 06:42:19;0.00;0.00;0.62;0.00;0.00;0.62;9.83;8.83;;;18.80;25.80;;;;;;2249776;61;20385;-61
2020/12/05 06:45:03;0.00;0.00;0.62;0.00;0.00;0.62;9.80;8.83;;;18.80;25.80;;;;;;2249737;61;20361;-62
2020/12/05 06:47:48;0.00;0.00;0.62;0.00;0.00;0.62;10.20;8.10;;;18.70;25.80;;;;;;2249619;61;20720;-62
2020/12/05 06:50:34;0.00;0.00;0.62;0.00;0.00;0.62;10.07;8.90;;;18.70;25.70;;;;;;2249864;61;20357;-61
2020/12/05 06:53:32;0.00;0.00;0.62;0.00;0.00;0.62;9.73;8.83;;;18.70;25.80;;;;;;2249709;61;20587;-62
2020/12/05 06:56:17;0.00;0.00;0.62;0.00;0.00;0.62;11.40;10.30;;;18.70;25.70;;;;;;2249689;61;20380;-62
2020/12/05 06:59:01;0.00;0.00;0.62;0.00;0.00;0.62;10.87;9.77;;;18.70;25.70;;;;;;2249882;61;20393;-62
2020/12/05 07:01:46;0.00;0.00;0.62;0.00;0.00;0.62;10.70;9.30;;;18.70;25.70;;;;;;2249552;61;20370;-60
2020/12/05 07:04:30;0.00;0.00;0.62;0.00;0.00;0.62;10.30;8.90;;;18.60;25.60;;;;;;2249736;61;20584;-62
2020/12/05 07:07:30;0.00;0.00;0.62;0.00;0.00;0.62;11.87;9.23;;;18.60;25.60;;;;;;2249739;61;20376;-61
2020/12/05 07:10:16;0.00;0.00;0.62;0.00;0.00;0.62;9.83;8.80;;;18.60;25.60;;;;;;2249501;61;20376;-62
2020/12/05 07:13:12;0.00;0.00;0.62;0.00;0.00;0.62;10.10;9.00;;;18.60;25.60;;;;;;2249687;61;20588;-62
2020/12/05 07:16:22;0.00;0.00;0.62;0.00;0.00;0.62;11.27;9.73;;;18.60;25.60;;;;;;2249514;61;20773;-62
2020/12/05 07:19:07;0.00;0.00;0.62;0.00;0.00;0.62;10.33;9.23;;;18.50;25.50;;;;;;2249779;61;20435;-62
2020/12/05 07:21:52;0.00;0.00;0.62;0.00;0.00;0.62;12.80;10.07;;;18.50;25.50;;;;;;2249672;61;20737;-62
2020/12/05 07:24:37;0.00;0.00;0.62;0.00;0.00;0.62;9.70;8.80;;;18.50;25.60;;;;;;2249372;61;20364;-61
2020/12/05 07:27:22;0.00;0.00;0.62;0.00;0.00;0.62;10.53;8.83;;;18.50;25.70;;;;;;2246603;61;20497;-62
2020/12/05 07:30:06;0.00;0.00;0.62;0.00;0.00;0.62;10.83;8.87;;;18.50;25.70;;;;;;2249740;61;20389;-62
2020/12/05 07:32:52;0.00;0.00;0.62;0.00;0.00;0.62;10.40;9.30;;;18.50;25.70;;;;;;2249410;61;20586;-61
2020/12/05 07:35:36;0.00;0.00;0.62;0.00;0.00;0.62;10.20;9.20;;;18.50;25.70;;;;;;2249776;61;20462;-62
2020/12/05 07:38:20;0.00;0.00;0.62;0.00;0.00;0.62;8.90;8.00;;;18.50;25.70;;;;;;2249348;61;20400;-62
2020/12/05 07:41:10;0.00;0.00;0.62;0.00;0.00;0.62;9.80;8.80;;;18.40;25.70;;;;;;2249750;61;20756;-62
2020/12/05 07:43:56;0.00;0.00;0.62;0.00;0.00;0.62;9.93;8.87;;;18.50;25.70;;;;;;2249660;61;20369;-62
2020/12/05 07:46:41;0.00;0.00;0.62;0.00;0.00;0.62;10.50;9.40;;;18.40;25.70;;;;;;2249417;61;20410;-63
2020/12/05 07:49:25;0.00;0.00;0.62;0.00;0.00;0.62;10.60;9.10;;;18.40;25.70;;;;;;2249617;61;20725;-61
2020/12/05 07:52:11;0.00;0.00;0.62;0.00;0.00;0.62;9.23;7.93;;;18.40;25.80;;;;;;2249703;61;20400;-62
2020/12/05 07:54:58;0.00;0.00;0.62;0.00;0.00;0.62;11.67;9.67;;;18.40;25.80;;;;;;2248779;61;20461;-63
2020/12/05 07:57:51;0.00;0.00;0.62;0.00;0.00;0.62;11.13;9.97;;;18.40;25.80;;;;;;2249571;61;20454;-61
2020/12/05 08:00:35;0.00;0.00;0.62;0.00;0.00;0.62;11.07;9.27;;;18.40;25.80;;;;;;2249403;61;20492;-63
2020/12/05 08:03:42;0.00;0.00;0.62;0.00;0.00;0.62;9.33;8.27;;;18.40;25.80;;;;;;2249761;61;20396;-62
2020/12/05 08:06:48;0.00;0.00;0.62;0.00;0.00;0.62;9.87;8.83;;;18.30;26.20;;;;;;2249653;61;20377;-62
2020/12/05 08:09:36;0.00;0.00;0.62;0.00;0.00;0.62;10.10;8.73;;;18.30;25.70;;;;;;2246836;61;20583;-63
2020/12/05 08:13:02;0.00;0.00;0.62;0.00;0.00;0.62;11.80;9.13;;;18.30;25.70;;;;;;2250067;61;20369;-62
2020/12/05 08:15:57;0.00;0.00;0.62;0.00;0.00;0.62;9.20;8.27;;;18.30;25.80;;;;;;2249766;61;20405;-63
2020/12/05 08:18:42;0.00;0.00;0.62;0.00;0.00;0.62;9.60;8.60;;;18.30;25.80;;;;;;2249899;61;20377;-63
2020/12/05 08:21:28;0.00;0.00;0.62;0.00;0.00;0.62;10.80;9.53;;;18.30;25.80;;;;;;2250003;61;20385;-61
2020/12/05 08:24:13;0.00;0.00;0.62;0.00;0.00;0.62;9.93;8.50;;;18.30;25.80;;;;;;2249579;61;20368;-62
2020/12/05 08:26:58;0.00;0.00;0.62;0.00;0.00;0.62;9.63;8.67;;;18.30;25.80;;;;;;2250036;61;20420;-61
2020/12/05 08:29:43;0.00;0.00;0.62;0.00;0.00;0.62;13.30;8.60;;;18.30;26.30;;;;;;2249969;61;20360;-62
2020/12/05 08:32:30;0.00;0.00;0.62;0.00;0.00;0.62;8.87;7.97;;;18.20;25.70;;;;;;2250077;61;20357;-62
2020/12/05 08:35:16;0.00;0.00;0.62;0.00;0.00;0.62;9.33;8.40;;;18.20;25.70;;;;;;2249602;61;20369;-62
2020/12/05 08:38:02;0.00;0.00;0.62;0.00;0.00;0.62;8.50;7.10;;;18.20;25.80;;;;;;2249698;61;20784;-61
2020/12/05 08:40:58;0.00;0.00;0.62;0.00;0.00;0.62;8.97;7.47;;;18.20;25.80;;;;;;2249846;61;20408;-62
2020/12/05 08:43:42;0.00;0.00;0.62;0.00;0.00;0.62;10.57;8.17;;;18.20;25.90;;;;;;2249985;61;20609;-62
2020/12/05 08:46:27;0.00;0.00;0.62;0.00;0.00;0.62;8.90;7.33;;;18.20;25.90;;;;;;2249673;61;20512;-61
2020/12/05 08:49:18;0.00;0.00;0.62;0.00;0.00;0.62;9.93;7.87;;;18.20;25.90;;;;;;2249895;61;20393;-62
2020/12/05 08:52:05;0.00;0.00;0.62;0.00;0.00;0.62;8.70;7.80;;;18.20;25.80;;;;;;2249686;61;20730;-62
2020/12/05 08:54:53;0.00;0.00;0.62;0.00;0.00;0.62;9.40;8.10;;;18.10;25.80;;;;;;2249730;61;20361;-62
2020/12/05 08:57:38;0.00;0.00;0.62;0.00;0.00;0.62;9.53;8.27;;;18.10;25.70;;;;;;2249787;61;20389;-63
2020/12/05 09:00:24;0.00;0.00;0.62;0.00;0.00;0.62;8.77;7.80;;;18.10;25.60;;;;;;2246489;61;20424;-62
2020/12/05 09:03:27;0.00;0.00;0.62;0.00;0.00;0.62;8.13;7.30;;;18.10;25.60;;;;;;2249805;61;20409;-61
2020/12/05 09:06:21;0.00;0.00;0.62;0.00;0.00;0.62;9.53;6.80;;;18.00;25.60;;;;;;2249891;61;20797;-63
2020/12/05 09:09:07;0.00;0.00;0.62;0.00;0.00;0.62;8.30;7.00;;;18.00;25.80;;;;;;2249589;61;20373;-62
2020/12/05 09:12:02;0.00;0.00;0.62;0.00;0.00;0.62;8.40;6.70;;;18.00;25.80;;;;;;2249858;61;20615;-63
2020/12/05 09:14:47;0.00;0.00;0.62;0.00;0.00;0.62;7.70;6.60;;;17.90;25.90;;;;;;2249455;61;20357;-62
2020/12/05 09:17:32;0.00;0.00;0.62;0.00;0.00;0.62;7.63;6.83;;;17.90;26.40;;;;;;2249821;61;20413;-67
2020/12/05 09:20:19;0.00;0.00;0.62;0.00;0.00;0.62;8.80;6.67;;;17.90;26.00;;;;;;2249782;61;20413;-61
2020/12/05 09:23:04;0.00;0.00;0.62;0.00;0.00;0.62;7.90;6.37;;;17.90;26.10;;;;;;2248580;61;20441;-65
2020/12/05 09:26:00;0.00;0.00;0.62;0.00;0.00;0.62;7.03;6.33;;;17.90;26.20;;;;;;2250073;61;20582;-62
2020/12/05 09:28:44;0.00;0.00;0.62;0.00;0.00;0.62;6.70;5.63;;;17.90;26.20;;;;;;2250242;61;20377;-62
2020/12/05 09:31:29;0.00;0.00;0.62;0.00;0.00;0.62;7.47;6.17;;;17.90;26.20;;;;;;2249868;61;20461;-65
2020/12/05 09:34:14;0.00;0.00;0.62;0.00;0.00;0.62;7.50;6.23;;;17.90;26.20;;;;;;2250313;61;20349;-65
2020/12/05 09:36:59;0.00;0.00;0.62;0.00;0.00;0.62;6.77;6.10;;;17.90;26.20;;;;;;2249789;61;20380;-65
2020/12/05 09:39:46;0.00;0.00;0.62;0.00;0.00;0.62;7.10;6.37;;;17.90;26.30;;;;;;2250146;61;20394;-63
2020/12/05 09:42:36;0.00;0.00;0.62;0.00;0.00;0.62;7.13;6.43;;;17.90;26.30;;;;;;2250415;61;20368;-61
2020/12/05 09:45:22;0.00;0.00;0.62;0.00;0.00;0.62;8.30;6.17;;;17.90;26.30;;;;;;2249994;61;20392;-65
2020/12/05 09:48:08;0.00;0.00;0.62;0.00;0.00;0.62;6.53;5.20;;;17.90;26.90;;;;;;2247120;61;20676;-63
2020/12/05 09:50:53;0.00;0.00;0.62;0.00;0.00;0.62;6.80;6.10;;;17.90;26.40;;;;;;2250237;61;20353;-61
2020/12/05 09:53:38;0.00;0.00;0.62;0.00;0.00;0.62;6.57;5.33;;;17.90;26.30;;;;;;2249805;61;20373;-61
2020/12/05 09:56:25;0.00;0.00;0.62;0.00;0.00;0.62;6.20;5.60;;;17.90;26.40;;;;;;2250274;61;20639;-63
2020/12/05 09:59:10;0.00;0.00;0.62;0.00;0.00;0.62;6.03;5.43;;;17.90;26.40;;;;;;2249990;61;20581;-61
2020/12/05 10:01:56;0.00;0.00;0.62;0.00;0.00;0.62;6.60;5.83;;;17.90;26.40;;;;;;2249915;61;20361;-63
2020/12/05 10:04:43;0.00;0.00;0.62;0.00;0.00;0.62;5.80;5.20;;;17.90;26.50;;;;;;2250195;61;20356;-61
2020/12/05 10:07:28;0.00;0.00;0.62;0.00;0.00;0.62;7.40;4.97;;;18.00;26.50;;;;;;2250113;61;20381;-63
2020/12/05 10:10:14;0.00;0.00;0.62;0.00;0.00;0.62;5.93;5.23;;;17.90;26.50;;;;;;2250329;61;20361;-62
2020/12/05 10:13:02;0.00;0.00;0.62;0.00;0.00;0.62;5.90;4.90;;;18.00;26.70;;;;;;2249807;61;20745;-64
2020/12/05 10:15:48;0.00;0.00;0.62;0.00;0.00;0.62;5.90;4.30;;;18.00;26.60;;;;;;2249414;61;20401;-63
2020/12/05 10:18:33;0.00;0.00;0.62;0.00;0.00;0.62;8.53;5.67;;;18.00;26.60;;;;;;2250296;61;20397;-64
2020/12/05 10:21:20;0.00;0.00;0.62;0.00;0.00;0.62;6.00;4.53;;;18.00;26.60;;;;;;2249898;61;20401;-64
2020/12/05 10:24:06;0.00;0.00;0.62;0.00;0.00;0.62;5.23;4.73;;;18.00;26.70;;;;;;2249794;61;20381;-63
2020/12/05 10:26:53;0.00;0.00;0.62;0.00;0.00;0.62;6.07;4.30;;;18.00;26.60;;;;;;2250258;61;20376;-62
2020/12/05 10:29:39;0.00;0.00;0.62;0.00;0.00;0.62;5.80;5.13;;;18.00;26.60;;;;;;2249778;61;20357;-61
2020/12/05 10:32:25;0.00;0.00;0.62;0.00;0.00;0.62;6.47;4.93;;;18.10;26.70;;;;;;2250053;61;20377;-62
2020/12/05 10:35:11;0.00;0.00;0.62;0.00;0.00;0.62;5.30;4.77;;;18.10;26.70;;;;;;2250164;61;20396;-64
2020/12/05 10:37:56;0.00;0.00;0.62;0.00;0.00;0.62;4.67;4.27;;;18.10;26.70;;;;;;2249531;61;20465;-60
2020/12/05 10:40:41;0.00;0.00;0.62;0.00;0.00;0.62;4.83;4.40;;;18.10;26.70;;;;;;2250056;61;20441;-63
2020/12/05 10:43:27;0.00;0.00;0.62;0.00;0.00;0.62;4.77;4.20;;;18.10;26.70;;;;;;2249924;61;20356;-63
2020/12/05 10:46:13;0.00;0.00;0.62;0.00;0.00;0.62;7.63;4.60;;;18.10;26.70;;;;;;2249698;61;20353;-61
2020/12/05 10:49:00;0.00;0.00;0.62;0.00;0.00;0.62;5.90;4.20;;;18.20;26.80;;;;;;2250285;61;20369;-62
2020/12/05 10:51:48;0.00;0.00;0.62;0.00;0.00;0.62;4.13;3.70;;;18.20;26.80;;;;;;2249892;61;20354;-63
2020/12/05 10:54:37;0.00;0.00;0.62;0.00;0.00;0.62;4.47;3.87;;;18.20;26.80;;;;;;2249839;61;20763;-62
2020/12/05 10:57:24;0.00;0.00;0.62;0.00;0.00;0.62;5.23;4.30;;;18.20;26.80;;;;;;2250226;61;20505;-61
2020/12/05 11:00:11;0.00;0.00;0.62;0.00;0.00;0.62;5.70;4.70;;;18.30;26.80;;;;;;2249316;61;20381;-63